sensor_id;sensor_type;location;lat;lon;timestamp;P1;durP1;ratioP1;P2;durP2;ratioP2
19225;SDS011;9747;48.536;12.522;2022-12-18T00:00:58;14.48;;;10.30;;
19225;SDS011;9747;48.536;12.522;2022-12-18T00:03:25;13.88;;;10.50;;
19225;SDS011;9747;48.536;12.522;2022-12-18T00:05:53;14.75;;;10.57;;
19225;SDS011;9747;48.536;12.522;2022-12-18T00:08:20;15.02;;;10.82;;
19225;SDS011;9747;48.536;12.522;2022-12-18T00:10:48;13.63;;;10.65;;
19225;SDS011;9747;48.536;12.522;2022-12-18T00:13:17;14.70;;;10.52;;
19225;SDS011;9747;48.536;12.522;2022-12-18T00:15:44;12.90;;;10.30;;
19225;SDS011;9747;48.536;12.522;2022-12-18T00:18:12;14.68;;;10.75;;
19225;SDS011;9747;48.536;12.522;2022-12-18T00:20:39;13.38;;;10.20;;
19225;SDS011;9747;48.536;12.522;2022-12-18T00:23:07;11.93;;;10.02;;
19225;SDS011;9747;48.536;12.522;2022-12-18T00:25:35;13.18;;;10.20;;
19225;SDS011;9747;48.536;12.522;2022-12-18T00:28:03;12.27;;;10.20;;
19225;SDS011;9747;48.536;12.522;2022-12-18T00:30:32;12.13;;;9.63;;
19225;SDS011;9747;48.536;12.522;2022-12-18T00:33:00;13.27;;;9.95;;
19225;SDS011;9747;48.536;12.522;2022-12-18T00:35:27;11.32;;;9.45;;
19225;SDS011;9747;48.536;12.522;2022-12-18T00:37:55;12.27;;;9.20;;
19225;SDS011;9747;48.536;12.522;2022-12-18T00:40:22;12.70;;;9.45;;
19225;SDS011;9747;48.536;12.522;2022-12-18T00:42:49;12.55;;;9.25;;
19225;SDS011;9747;48.536;12.522;2022-12-18T00:45:22;13.30;;;9.30;;
19225;SDS011;9747;48.536;12.522;2022-12-18T00:47:51;12.07;;;9.68;;
19225;SDS011;9747;48.536;12.522;2022-12-18T00:50:19;11.57;;;9.57;;
19225;SDS011;9747;48.536;12.522;2022-12-18T00:52:47;11.60;;;9.57;;
19225;SDS011;9747;48.536;12.522;2022-12-18T00:55:14;11.13;;;9.30;;
19225;SDS011;9747;48.536;12.522;2022-12-18T00:57:42;10.70;;;8.85;;
19225;SDS011;9747;48.536;12.522;2022-12-18T01:00:11;10.70;;;8.70;;
19225;SDS011;9747;48.536;12.522;2022-12-18T01:02:41;14.38;;;9.60;;
19225;SDS011;9747;48.536;12.522;2022-12-18T01:05:10;11.20;;;8.85;;
19225;SDS011;9747;48.536;12.522;2022-12-18T01:07:39;11.63;;;9.48;;
19225;SDS011;9747;48.536;12.522;2022-12-18T01:10:07;11.90;;;9.27;;
19225;SDS011;9747;48.536;12.522;2022-12-18T01:12:36;10.90;;;9.35;;
19225;SDS011;9747;48.536;12.522;2022-12-18T01:15:04;11.10;;;8.90;;
19225;SDS011;9747;48.536;12.522;2022-12-18T01:17:36;11.90;;;9.23;;
19225;SDS011;9747;48.536;12.522;2022-12-18T01:20:03;11.70;;;9.07;;
19225;SDS011;9747;48.536;12.522;2022-12-18T01:22:33;10.77;;;9.45;;
19225;SDS011;9747;48.536;12.522;2022-12-18T01:25:01;10.80;;;8.98;;
19225;SDS011;9747;48.536;12.522;2022-12-18T01:27:29;11.90;;;9.10;;
19225;SDS011;9747;48.536;12.522;2022-12-18T01:29:56;10.13;;;8.48;;
19225;SDS011;9747;48.536;12.522;2022-12-18T01:32:25;9.57;;;8.50;;
19225;SDS011;9747;48.536;12.522;2022-12-18T01:34:52;12.30;;;9.73;;
19225;SDS011;9747;48.536;12.522;2022-12-18T01:37:20;10.25;;;8.77;;
19225;SDS011;9747;48.536;12.522;2022-12-18T01:39:49;9.95;;;8.52;;
19225;SDS011;9747;48.536;12.522;2022-12-18T01:42:18;10.27;;;8.50;;
19225;SDS011;9747;48.536;12.522;2022-12-18T01:44:57;10.50;;;8.88;;
19225;SDS011;9747;48.536;12.522;2022-12-18T01:47:52;10.63;;;8.50;;
19225;SDS011;9747;48.536;12.522;2022-12-18T01:50:22;9.43;;;8.15;;
19225;SDS011;9747;48.536;12.522;2022-12-18T01:52:54;11.18;;;8.90;;
19225;SDS011;9747;48.536;12.522;2022-12-18T01:55:26;10.73;;;8.60;;
19225;SDS011;9747;48.536;12.522;2022-12-18T01:57:56;10.25;;;8.43;;
19225;SDS011;9747;48.536;12.522;2022-12-18T02:00:26;9.48;;;8.43;;
19225;SDS011;9747;48.536;12.522;2022-12-18T02:02:54;9.57;;;8.50;;
19225;SDS011;9747;48.536;12.522;2022-12-18T02:05:23;10.60;;;8.48;;
19225;SDS011;9747;48.536;12.522;2022-12-18T02:08:04;10.15;;;8.30;;
19225;SDS011;9747;48.536;12.522;2022-12-18T02:10:39;9.95;;;8.57;;
19225;SDS011;9747;48.536;12.522;2022-12-18T02:13:14;9.40;;;8.38;;
19225;SDS011;9747;48.536;12.522;2022-12-18T02:15:49;9.70;;;8.23;;
19225;SDS011;9747;48.536;12.522;2022-12-18T02:18:24;10.60;;;8.80;;
19225;SDS011;9747;48.536;12.522;2022-12-18T02:20:55;11.95;;;8.88;;
19225;SDS011;9747;48.536;12.522;2022-12-18T02:23:34;10.02;;;8.88;;
19225;SDS011;9747;48.536;12.522;2022-12-18T02:26:19;9.23;;;7.95;;
19225;SDS011;9747;48.536;12.522;2022-12-18T02:28:51;9.63;;;8.63;;
19225;SDS011;9747;48.536;12.522;2022-12-18T02:31:21;10.65;;;8.25;;
19225;SDS011;9747;48.536;12.522;2022-12-18T02:33:51;9.93;;;8.93;;
19225;SDS011;9747;48.536;12.522;2022-12-18T02:36:22;10.82;;;8.88;;
19225;SDS011;9747;48.536;12.522;2022-12-18T02:38:51;9.60;;;8.60;;
19225;SDS011;9747;48.536;12.522;2022-12-18T02:41:21;9.30;;;8.27;;
19225;SDS011;9747;48.536;12.522;2022-12-18T02:43:53;9.90;;;8.43;;
19225;SDS011;9747;48.536;12.522;2022-12-18T02:46:29;9.07;;;8.10;;
19225;SDS011;9747;48.536;12.522;2022-12-18T02:49:08;9.00;;;8.05;;
19225;SDS011;9747;48.536;12.522;2022-12-18T02:51:50;10.02;;;8.07;;
19225;SDS011;9747;48.536;12.522;2022-12-18T02:54:32;9.77;;;8.05;;
19225;SDS011;9747;48.536;12.522;2022-12-18T02:57:16;9.90;;;7.90;;
19225;SDS011;9747;48.536;12.522;2022-12-18T02:59:49;9.40;;;8.07;;
19225;SDS011;9747;48.536;12.522;2022-12-18T03:02:26;8.68;;;7.78;;
19225;SDS011;9747;48.536;12.522;2022-12-18T03:04:59;9.23;;;8.05;;
19225;SDS011;9747;48.536;12.522;2022-12-18T03:07:34;10.00;;;7.90;;
19225;SDS011;9747;48.536;12.522;2022-12-18T03:10:09;8.82;;;7.68;;
19225;SDS011;9747;48.536;12.522;2022-12-18T03:12:42;9.30;;;7.97;;
19225;SDS011;9747;48.536;12.522;2022-12-18T03:15:12;9.20;;;8.20;;
19225;SDS011;9747;48.536;12.522;2022-12-18T03:17:45;8.90;;;7.82;;
19225;SDS011;9747;48.536;12.522;2022-12-18T03:20:17;9.30;;;7.75;;
19225;SDS011;9747;48.536;12.522;2022-12-18T03:22:50;8.50;;;7.53;;
19225;SDS011;9747;48.536;12.522;2022-12-18T03:25:23;8.30;;;7.50;;
19225;SDS011;9747;48.536;12.522;2022-12-18T03:27:55;9.45;;;8.10;;
19225;SDS011;9747;48.536;12.522;2022-12-18T03:30:25;8.15;;;7.35;;
19225;SDS011;9747;48.536;12.522;2022-12-18T03:32:57;9.52;;;8.15;;
19225;SDS011;9747;48.536;12.522;2022-12-18T03:35:31;9.23;;;8.10;;
19225;SDS011;9747;48.536;12.522;2022-12-18T03:38:03;8.60;;;7.65;;
19225;SDS011;9747;48.536;12.522;2022-12-18T03:40:35;9.38;;;7.97;;
19225;SDS011;9747;48.536;12.522;2022-12-18T03:43:17;9.90;;;8.02;;
19225;SDS011;9747;48.536;12.522;2022-12-18T03:45:51;11.85;;;8.38;;
19225;SDS011;9747;48.536;12.522;2022-12-18T03:48:26;8.88;;;7.65;;
19225;SDS011;9747;48.536;12.522;2022-12-18T03:50:59;10.15;;;8.45;;
19225;SDS011;9747;48.536;12.522;2022-12-18T03:53:33;9.30;;;7.75;;
19225;SDS011;9747;48.536;12.522;2022-12-18T03:56:04;9.45;;;8.15;;
19225;SDS011;9747;48.536;12.522;2022-12-18T03:58:38;9.05;;;7.75;;
19225;SDS011;9747;48.536;12.522;2022-12-18T04:01:16;9.75;;;8.13;;
19225;SDS011;9747;48.536;12.522;2022-12-18T04:03:46;10.48;;;7.88;;
19225;SDS011;9747;48.536;12.522;2022-12-18T04:06:17;9.77;;;8.13;;
19225;SDS011;9747;48.536;12.522;2022-12-18T04:08:45;9.88;;;8.38;;
19225;SDS011;9747;48.536;12.522;2022-12-18T04:11:16;9.75;;;7.82;;
19225;SDS011;9747;48.536;12.522;2022-12-18T04:13:47;8.95;;;7.97;;
19225;SDS011;9747;48.536;12.522;2022-12-18T04:16:20;8.68;;;7.65;;
19225;SDS011;9747;48.536;12.522;2022-12-18T04:18:51;10.32;;;8.43;;
19225;SDS011;9747;48.536;12.522;2022-12-18T04:21:20;9.65;;;7.75;;
19225;SDS011;9747;48.536;12.522;2022-12-18T04:23:48;9.45;;;7.80;;
19225;SDS011;9747;48.536;12.522;2022-12-18T04:26:19;9.70;;;7.93;;
19225;SDS011;9747;48.536;12.522;2022-12-18T04:29:00;9.93;;;8.10;;
19225;SDS011;9747;48.536;12.522;2022-12-18T04:31:28;9.82;;;7.90;;
19225;SDS011;9747;48.536;12.522;2022-12-18T04:33:55;9.23;;;8.18;;
19225;SDS011;9747;48.536;12.522;2022-12-18T04:36:23;9.23;;;7.78;;
19225;SDS011;9747;48.536;12.522;2022-12-18T04:38:51;9.50;;;7.95;;
19225;SDS011;9747;48.536;12.522;2022-12-18T04:41:19;8.75;;;7.40;;
19225;SDS011;9747;48.536;12.522;2022-12-18T04:43:50;8.90;;;7.63;;
19225;SDS011;9747;48.536;12.522;2022-12-18T04:46:19;9.70;;;7.68;;
19225;SDS011;9747;48.536;12.522;2022-12-18T04:48:46;9.05;;;7.88;;
19225;SDS011;9747;48.536;12.522;2022-12-18T04:51:13;8.70;;;7.65;;
19225;SDS011;9747;48.536;12.522;2022-12-18T04:53:41;9.77;;;7.95;;
19225;SDS011;9747;48.536;12.522;2022-12-18T04:56:09;8.88;;;7.78;;
19225;SDS011;9747;48.536;12.522;2022-12-18T04:58:39;9.40;;;8.00;;
19225;SDS011;9747;48.536;12.522;2022-12-18T05:01:08;8.98;;;7.70;;
19225;SDS011;9747;48.536;12.522;2022-12-18T05:03:38;9.35;;;7.82;;
19225;SDS011;9747;48.536;12.522;2022-12-18T05:06:06;8.57;;;7.50;;
19225;SDS011;9747;48.536;12.522;2022-12-18T05:08:33;9.23;;;7.95;;
19225;SDS011;9747;48.536;12.522;2022-12-18T05:11:02;9.38;;;7.82;;
19225;SDS011;9747;48.536;12.522;2022-12-18T05:13:31;9.93;;;8.18;;
19225;SDS011;9747;48.536;12.522;2022-12-18T05:15:59;9.40;;;7.93;;
19225;SDS011;9747;48.536;12.522;2022-12-18T05:18:27;9.07;;;7.78;;
19225;SDS011;9747;48.536;12.522;2022-12-18T05:20:56;10.00;;;8.00;;
19225;SDS011;9747;48.536;12.522;2022-12-18T05:23:24;8.95;;;7.50;;
19225;SDS011;9747;48.536;12.522;2022-12-18T05:25:52;9.15;;;7.65;;
19225;SDS011;9747;48.536;12.522;2022-12-18T05:28:20;9.73;;;8.30;;
19225;SDS011;9747;48.536;12.522;2022-12-18T05:30:49;8.68;;;7.80;;
19225;SDS011;9747;48.536;12.522;2022-12-18T05:33:17;9.23;;;7.75;;
19225;SDS011;9747;48.536;12.522;2022-12-18T05:35:49;9.82;;;7.88;;
19225;SDS011;9747;48.536;12.522;2022-12-18T05:38:19;9.10;;;7.53;;
19225;SDS011;9747;48.536;12.522;2022-12-18T05:40:46;9.48;;;7.90;;
19225;SDS011;9747;48.536;12.522;2022-12-18T05:43:14;8.52;;;7.32;;
19225;SDS011;9747;48.536;12.522;2022-12-18T05:45:42;9.43;;;7.55;;
19225;SDS011;9747;48.536;12.522;2022-12-18T05:48:10;9.52;;;7.85;;
19225;SDS011;9747;48.536;12.522;2022-12-18T05:50:39;9.43;;;8.18;;
19225;SDS011;9747;48.536;12.522;2022-12-18T05:53:09;8.07;;;7.28;;
19225;SDS011;9747;48.536;12.522;2022-12-18T05:55:38;8.40;;;7.30;;
19225;SDS011;9747;48.536;12.522;2022-12-18T05:58:08;9.90;;;7.82;;
19225;SDS011;9747;48.536;12.522;2022-12-18T06:00:38;9.40;;;7.40;;
19225;SDS011;9747;48.536;12.522;2022-12-18T06:03:07;8.30;;;7.20;;
19225;SDS011;9747;48.536;12.522;2022-12-18T06:05:36;9.52;;;8.18;;
19225;SDS011;9747;48.536;12.522;2022-12-18T06:08:05;8.65;;;7.60;;
19225;SDS011;9747;48.536;12.522;2022-12-18T06:10:32;8.52;;;7.55;;
19225;SDS011;9747;48.536;12.522;2022-12-18T06:13:01;8.68;;;7.60;;
19225;SDS011;9747;48.536;12.522;2022-12-18T06:15:29;8.82;;;7.38;;
19225;SDS011;9747;48.536;12.522;2022-12-18T06:17:56;9.18;;;6.75;;
19225;SDS011;9747;48.536;12.522;2022-12-18T06:20:24;9.13;;;7.32;;
19225;SDS011;9747;48.536;12.522;2022-12-18T06:22:51;9.10;;;7.75;;
19225;SDS011;9747;48.536;12.522;2022-12-18T06:25:19;8.80;;;7.60;;
19225;SDS011;9747;48.536;12.522;2022-12-18T06:27:47;10.38;;;7.78;;
19225;SDS011;9747;48.536;12.522;2022-12-18T06:30:15;8.60;;;7.40;;
19225;SDS011;9747;48.536;12.522;2022-12-18T06:32:43;10.57;;;7.90;;
19225;SDS011;9747;48.536;12.522;2022-12-18T06:35:10;9.38;;;7.55;;
19225;SDS011;9747;48.536;12.522;2022-12-18T06:37:38;8.68;;;6.85;;
19225;SDS011;9747;48.536;12.522;2022-12-18T06:40:06;9.30;;;7.55;;
19225;SDS011;9747;48.536;12.522;2022-12-18T06:42:34;8.32;;;7.13;;
19225;SDS011;9747;48.536;12.522;2022-12-18T06:45:02;8.55;;;7.07;;
19225;SDS011;9747;48.536;12.522;2022-12-18T06:47:31;8.80;;;7.15;;
19225;SDS011;9747;48.536;12.522;2022-12-18T06:49:59;7.80;;;7.00;;
19225;SDS011;9747;48.536;12.522;2022-12-18T06:52:26;8.18;;;6.85;;
19225;SDS011;9747;48.536;12.522;2022-12-18T06:54:53;9.57;;;7.30;;
19225;SDS011;9747;48.536;12.522;2022-12-18T06:57:21;9.30;;;7.20;;
19225;SDS011;9747;48.536;12.522;2022-12-18T06:59:48;8.32;;;7.07;;
19225;SDS011;9747;48.536;12.522;2022-12-18T07:02:16;9.73;;;7.68;;
19225;SDS011;9747;48.536;12.522;2022-12-18T07:04:44;8.90;;;7.32;;
19225;SDS011;9747;48.536;12.522;2022-12-18T07:07:12;10.27;;;8.18;;
19225;SDS011;9747;48.536;12.522;2022-12-18T07:09:39;8.13;;;6.72;;
19225;SDS011;9747;48.536;12.522;2022-12-18T07:12:06;8.07;;;6.85;;
19225;SDS011;9747;48.536;12.522;2022-12-18T07:14:34;8.35;;;6.93;;
19225;SDS011;9747;48.536;12.522;2022-12-18T07:17:01;9.38;;;7.43;;
19225;SDS011;9747;48.536;12.522;2022-12-18T07:19:29;9.20;;;7.70;;
19225;SDS011;9747;48.536;12.522;2022-12-18T07:21:57;8.02;;;7.00;;
19225;SDS011;9747;48.536;12.522;2022-12-18T07:24:25;9.23;;;7.28;;
19225;SDS011;9747;48.536;12.522;2022-12-18T07:26:53;8.98;;;7.30;;
19225;SDS011;9747;48.536;12.522;2022-12-18T07:29:20;8.35;;;6.95;;
19225;SDS011;9747;48.536;12.522;2022-12-18T07:31:48;9.80;;;8.05;;
19225;SDS011;9747;48.536;12.522;2022-12-18T07:34:15;9.48;;;7.22;;
19225;SDS011;9747;48.536;12.522;2022-12-18T07:36:43;10.02;;;7.25;;
19225;SDS011;9747;48.536;12.522;2022-12-18T07:39:11;9.43;;;6.97;;
19225;SDS011;9747;48.536;12.522;2022-12-18T07:41:39;10.45;;;7.22;;
19225;SDS011;9747;48.536;12.522;2022-12-18T07:44:11;10.48;;;6.93;;
19225;SDS011;9747;48.536;12.522;2022-12-18T07:46:38;9.13;;;6.88;;
19225;SDS011;9747;48.536;12.522;2022-12-18T07:49:06;10.90;;;6.97;;
19225;SDS011;9747;48.536;12.522;2022-12-18T07:51:34;9.13;;;6.90;;
19225;SDS011;9747;48.536;12.522;2022-12-18T07:54:02;27.00;;;16.80;;
19225;SDS011;9747;48.536;12.522;2022-12-18T07:56:31;33.95;;;18.17;;
19225;SDS011;9747;48.536;12.522;2022-12-18T07:58:58;19.90;;;13.70;;
19225;SDS011;9747;48.536;12.522;2022-12-18T08:01:29;17.75;;;11.45;;
19225;SDS011;9747;48.536;12.522;2022-12-18T08:03:56;14.80;;;10.35;;
19225;SDS011;9747;48.536;12.522;2022-12-18T08:06:25;14.95;;;9.38;;
19225;SDS011;9747;48.536;12.522;2022-12-18T08:08:52;16.42;;;9.93;;
19225;SDS011;9747;48.536;12.522;2022-12-18T08:11:21;13.60;;;8.68;;
19225;SDS011;9747;48.536;12.522;2022-12-18T08:13:51;11.07;;;8.13;;
19225;SDS011;9747;48.536;12.522;2022-12-18T08:16:19;12.82;;;8.15;;
19225;SDS011;9747;48.536;12.522;2022-12-18T08:18:47;18.10;;;12.65;;
19225;SDS011;9747;48.536;12.522;2022-12-18T08:21:15;13.10;;;9.98;;
19225;SDS011;9747;48.536;12.522;2022-12-18T08:23:46;12.88;;;8.70;;
19225;SDS011;9747;48.536;12.522;2022-12-18T08:26:13;11.40;;;8.05;;
19225;SDS011;9747;48.536;12.522;2022-12-18T08:28:41;14.93;;;8.07;;
19225;SDS011;9747;48.536;12.522;2022-12-18T08:31:10;12.73;;;8.05;;
19225;SDS011;9747;48.536;12.522;2022-12-18T08:33:38;12.77;;;7.60;;
19225;SDS011;9747;48.536;12.522;2022-12-18T08:36:07;11.52;;;7.40;;
19225;SDS011;9747;48.536;12.522;2022-12-18T08:38:35;8.88;;;7.43;;
19225;SDS011;9747;48.536;12.522;2022-12-18T08:41:03;13.48;;;7.80;;
19225;SDS011;9747;48.536;12.522;2022-12-18T08:43:32;10.75;;;7.15;;
19225;SDS011;9747;48.536;12.522;2022-12-18T08:46:19;10.18;;;7.40;;
19225;SDS011;9747;48.536;12.522;2022-12-18T08:48:48;9.35;;;7.35;;
19225;SDS011;9747;48.536;12.522;2022-12-18T08:51:18;8.35;;;6.90;;
19225;SDS011;9747;48.536;12.522;2022-12-18T08:53:46;8.57;;;6.80;;
19225;SDS011;9747;48.536;12.522;2022-12-18T08:56:14;11.20;;;6.95;;
19225;SDS011;9747;48.536;12.522;2022-12-18T08:58:42;7.88;;;6.30;;
19225;SDS011;9747;48.536;12.522;2022-12-18T09:01:10;8.13;;;6.05;;
19225;SDS011;9747;48.536;12.522;2022-12-18T09:03:40;9.10;;;6.35;;
19225;SDS011;9747;48.536;12.522;2022-12-18T09:06:08;12.18;;;7.47;;
19225;SDS011;9747;48.536;12.522;2022-12-18T09:08:35;11.80;;;6.85;;
19225;SDS011;9747;48.536;12.522;2022-12-18T09:11:03;13.02;;;6.47;;
19225;SDS011;9747;48.536;12.522;2022-12-18T09:13:31;10.80;;;7.22;;
19225;SDS011;9747;48.536;12.522;2022-12-18T09:15:58;11.13;;;6.68;;
19225;SDS011;9747;48.536;12.522;2022-12-18T09:18:26;10.60;;;6.63;;
19225;SDS011;9747;48.536;12.522;2022-12-18T09:20:55;8.23;;;5.90;;
19225;SDS011;9747;48.536;12.522;2022-12-18T09:23:22;11.85;;;6.85;;
19225;SDS011;9747;48.536;12.522;2022-12-18T09:25:49;8.93;;;6.75;;
19225;SDS011;9747;48.536;12.522;2022-12-18T09:28:17;10.23;;;6.30;;
19225;SDS011;9747;48.536;12.522;2022-12-18T09:30:45;9.20;;;6.03;;
19225;SDS011;9747;48.536;12.522;2022-12-18T09:33:15;7.40;;;5.82;;
19225;SDS011;9747;48.536;12.522;2022-12-18T09:35:43;9.13;;;6.10;;
19225;SDS011;9747;48.536;12.522;2022-12-18T09:38:14;9.02;;;6.30;;
19225;SDS011;9747;48.536;12.522;2022-12-18T09:40:44;8.85;;;5.90;;
19225;SDS011;9747;48.536;12.522;2022-12-18T09:43:14;8.57;;;6.28;;
19225;SDS011;9747;48.536;12.522;2022-12-18T09:45:47;10.80;;;6.35;;
19225;SDS011;9747;48.536;12.522;2022-12-18T09:48:20;7.43;;;6.13;;
19225;SDS011;9747;48.536;12.522;2022-12-18T09:50:52;8.77;;;6.07;;
19225;SDS011;9747;48.536;12.522;2022-12-18T09:53:26;9.60;;;6.97;;
19225;SDS011;9747;48.536;12.522;2022-12-18T09:55:56;8.20;;;6.30;;
19225;SDS011;9747;48.536;12.522;2022-12-18T09:58:26;8.55;;;6.57;;
19225;SDS011;9747;48.536;12.522;2022-12-18T10:00:56;8.77;;;6.90;;
19225;SDS011;9747;48.536;12.522;2022-12-18T10:03:25;6.95;;;5.97;;
19225;SDS011;9747;48.536;12.522;2022-12-18T10:05:55;8.77;;;6.20;;
19225;SDS011;9747;48.536;12.522;2022-12-18T10:08:33;7.93;;;6.30;;
19225;SDS011;9747;48.536;12.522;2022-12-18T10:11:13;9.98;;;6.32;;
19225;SDS011;9747;48.536;12.522;2022-12-18T10:13:54;9.45;;;6.13;;
19225;SDS011;9747;48.536;12.522;2022-12-18T10:16:27;8.18;;;5.75;;
19225;SDS011;9747;48.536;12.522;2022-12-18T10:19:03;10.20;;;6.15;;
19225;SDS011;9747;48.536;12.522;2022-12-18T10:21:55;10.15;;;6.10;;
19225;SDS011;9747;48.536;12.522;2022-12-18T10:24:31;9.00;;;6.40;;
19225;SDS011;9747;48.536;12.522;2022-12-18T10:27:07;9.60;;;7.65;;
19225;SDS011;9747;48.536;12.522;2022-12-18T10:29:41;9.57;;;6.80;;
19225;SDS011;9747;48.536;12.522;2022-12-18T10:32:09;8.30;;;6.82;;
19225;SDS011;9747;48.536;12.522;2022-12-18T10:34:44;7.93;;;6.50;;
19225;SDS011;9747;48.536;12.522;2022-12-18T10:37:15;8.65;;;6.43;;
19225;SDS011;9747;48.536;12.522;2022-12-18T10:39:46;7.75;;;6.30;;
19225;SDS011;9747;48.536;12.522;2022-12-18T10:42:31;10.45;;;6.13;;
19225;SDS011;9747;48.536;12.522;2022-12-18T10:45:00;7.18;;;6.18;;
19225;SDS011;9747;48.536;12.522;2022-12-18T10:47:30;7.20;;;5.75;;
19225;SDS011;9747;48.536;12.522;2022-12-18T10:49:58;7.47;;;5.97;;
19225;SDS011;9747;48.536;12.522;2022-12-18T10:52:26;7.50;;;6.60;;
19225;SDS011;9747;48.536;12.522;2022-12-18T10:54:57;6.45;;;5.72;;
19225;SDS011;9747;48.536;12.522;2022-12-18T10:57:31;9.93;;;6.47;;
19225;SDS011;9747;48.536;12.522;2022-12-18T11:00:19;7.50;;;5.97;;
19225;SDS011;9747;48.536;12.522;2022-12-18T11:02:52;9.15;;;6.03;;
19225;SDS011;9747;48.536;12.522;2022-12-18T11:05:25;8.80;;;5.95;;
19225;SDS011;9747;48.536;12.522;2022-12-18T11:07:56;8.07;;;6.47;;
19225;SDS011;9747;48.536;12.522;2022-12-18T11:10:28;8.50;;;6.05;;
19225;SDS011;9747;48.536;12.522;2022-12-18T11:13:08;7.55;;;5.65;;
19225;SDS011;9747;48.536;12.522;2022-12-18T11:15:39;6.68;;;5.75;;
19225;SDS011;9747;48.536;12.522;2022-12-18T11:18:14;10.13;;;5.88;;
19225;SDS011;9747;48.536;12.522;2022-12-18T11:20:49;8.02;;;6.40;;
19225;SDS011;9747;48.536;12.522;2022-12-18T11:23:18;6.88;;;6.05;;
19225;SDS011;9747;48.536;12.522;2022-12-18T11:25:54;7.75;;;5.85;;
19225;SDS011;9747;48.536;12.522;2022-12-18T11:28:25;7.32;;;5.72;;
19225;SDS011;9747;48.536;12.522;2022-12-18T11:31:11;6.65;;;5.70;;
19225;SDS011;9747;48.536;12.522;2022-12-18T11:36:39;7.72;;;5.95;;
19225;SDS011;9747;48.536;12.522;2022-12-18T11:39:12;26.02;;;13.98;;
19225;SDS011;9747;48.536;12.522;2022-12-18T11:41:48;12.90;;;9.23;;
19225;SDS011;9747;48.536;12.522;2022-12-18T11:44:35;11.40;;;8.25;;
19225;SDS011;9747;48.536;12.522;2022-12-18T11:47:09;10.68;;;7.88;;
19225;SDS011;9747;48.536;12.522;2022-12-18T11:49:46;9.10;;;7.03;;
19225;SDS011;9747;48.536;12.522;2022-12-18T11:52:16;9.38;;;7.60;;
19225;SDS011;9747;48.536;12.522;2022-12-18T11:54:46;10.20;;;7.60;;
19225;SDS011;9747;48.536;12.522;2022-12-18T11:57:17;11.65;;;7.60;;
19225;SDS011;9747;48.536;12.522;2022-12-18T11:59:55;13.38;;;7.45;;
19225;SDS011;9747;48.536;12.522;2022-12-18T12:06:06;9.52;;;7.65;;
19225;SDS011;9747;48.536;12.522;2022-12-18T12:08:42;9.85;;;7.10;;
19225;SDS011;9747;48.536;12.522;2022-12-18T12:11:26;10.50;;;7.40;;
19225;SDS011;9747;48.536;12.522;2022-12-18T12:14:06;10.18;;;7.28;;
19225;SDS011;9747;48.536;12.522;2022-12-18T12:16:49;8.98;;;7.40;;
19225;SDS011;9747;48.536;12.522;2022-12-18T12:19:26;10.88;;;7.07;;
19225;SDS011;9747;48.536;12.522;2022-12-18T12:22:06;10.35;;;7.45;;
19225;SDS011;9747;48.536;12.522;2022-12-18T12:24:44;10.98;;;7.38;;
19225;SDS011;9747;48.536;12.522;2022-12-18T12:27:24;10.05;;;7.28;;
19225;SDS011;9747;48.536;12.522;2022-12-18T12:30:02;12.25;;;7.43;;
19225;SDS011;9747;48.536;12.522;2022-12-18T12:32:41;13.00;;;9.30;;
19225;SDS011;9747;48.536;12.522;2022-12-18T12:35:28;12.15;;;7.95;;
19225;SDS011;9747;48.536;12.522;2022-12-18T12:38:05;11.55;;;7.72;;
19225;SDS011;9747;48.536;12.522;2022-12-18T12:40:36;12.20;;;8.27;;
19225;SDS011;9747;48.536;12.522;2022-12-18T12:43:11;9.55;;;7.60;;
19225;SDS011;9747;48.536;12.522;2022-12-18T12:45:50;10.98;;;8.55;;
19225;SDS011;9747;48.536;12.522;2022-12-18T12:48:22;16.42;;;7.55;;
19225;SDS011;9747;48.536;12.522;2022-12-18T12:51:00;10.77;;;6.97;;
19225;SDS011;9747;48.536;12.522;2022-12-18T12:53:31;10.77;;;8.18;;
19225;SDS011;9747;48.536;12.522;2022-12-18T12:56:00;8.45;;;6.43;;
19225;SDS011;9747;48.536;12.522;2022-12-18T12:58:31;9.98;;;6.55;;
19225;SDS011;9747;48.536;12.522;2022-12-18T13:01:11;10.05;;;6.70;;
19225;SDS011;9747;48.536;12.522;2022-12-18T13:03:46;8.63;;;6.50;;
19225;SDS011;9747;48.536;12.522;2022-12-18T13:06:24;8.77;;;6.50;;
19225;SDS011;9747;48.536;12.522;2022-12-18T13:09:03;9.20;;;6.70;;
19225;SDS011;9747;48.536;12.522;2022-12-18T13:11:38;9.55;;;6.28;;
19225;SDS011;9747;48.536;12.522;2022-12-18T13:14:26;10.00;;;6.15;;
19225;SDS011;9747;48.536;12.522;2022-12-18T13:19:50;9.52;;;6.32;;
19225;SDS011;9747;48.536;12.522;2022-12-18T13:22:29;11.43;;;7.47;;
19225;SDS011;9747;48.536;12.522;2022-12-18T13:25:00;7.97;;;5.63;;
19225;SDS011;9747;48.536;12.522;2022-12-18T13:27:45;11.93;;;6.20;;
19225;SDS011;9747;48.536;12.522;2022-12-18T13:36:30;9.10;;;6.20;;
19225;SDS011;9747;48.536;12.522;2022-12-18T13:39:21;9.45;;;6.35;;
19225;SDS011;9747;48.536;12.522;2022-12-18T13:41:52;9.25;;;6.53;;
19225;SDS011;9747;48.536;12.522;2022-12-18T13:44:55;9.77;;;6.40;;
19225;SDS011;9747;48.536;12.522;2022-12-18T13:47:25;8.07;;;5.93;;
19225;SDS011;9747;48.536;12.522;2022-12-18T13:49:59;10.00;;;6.18;;
19225;SDS011;9747;48.536;12.522;2022-12-18T13:52:28;10.63;;;6.25;;
19225;SDS011;9747;48.536;12.522;2022-12-18T13:55:00;8.40;;;6.07;;
19225;SDS011;9747;48.536;12.522;2022-12-18T13:57:33;8.02;;;6.18;;
19225;SDS011;9747;48.536;12.522;2022-12-18T14:00:16;9.48;;;6.15;;
19225;SDS011;9747;48.536;12.522;2022-12-18T14:02:52;9.68;;;6.35;;
19225;SDS011;9747;48.536;12.522;2022-12-18T14:05:23;7.90;;;5.95;;
19225;SDS011;9747;48.536;12.522;2022-12-18T14:07:51;10.35;;;6.25;;
19225;SDS011;9747;48.536;12.522;2022-12-18T14:10:19;7.32;;;5.85;;
19225;SDS011;9747;48.536;12.522;2022-12-18T14:12:48;6.82;;;5.50;;
19225;SDS011;9747;48.536;12.522;2022-12-18T14:15:28;9.38;;;7.00;;
19225;SDS011;9747;48.536;12.522;2022-12-18T14:18:00;11.10;;;7.07;;
19225;SDS011;9747;48.536;12.522;2022-12-18T14:20:36;8.35;;;6.68;;
19225;SDS011;9747;48.536;12.522;2022-12-18T14:23:24;9.57;;;6.90;;
19225;SDS011;9747;48.536;12.522;2022-12-18T14:25:56;7.57;;;5.93;;
19225;SDS011;9747;48.536;12.522;2022-12-18T14:28:24;11.20;;;7.72;;
19225;SDS011;9747;48.536;12.522;2022-12-18T14:30:52;9.65;;;7.15;;
19225;SDS011;9747;48.536;12.522;2022-12-18T14:33:22;8.73;;;6.97;;
19225;SDS011;9747;48.536;12.522;2022-12-18T14:35:56;10.55;;;7.40;;
19225;SDS011;9747;48.536;12.522;2022-12-18T14:38:29;9.55;;;7.20;;
19225;SDS011;9747;48.536;12.522;2022-12-18T14:40:58;9.48;;;7.13;;
19225;SDS011;9747;48.536;12.522;2022-12-18T14:43:27;8.05;;;7.18;;
19225;SDS011;9747;48.536;12.522;2022-12-18T14:45:57;9.55;;;7.22;;
19225;SDS011;9747;48.536;12.522;2022-12-18T14:48:33;9.43;;;6.93;;
19225;SDS011;9747;48.536;12.522;2022-12-18T14:51:05;9.48;;;7.32;;
19225;SDS011;9747;48.536;12.522;2022-12-18T14:53:42;7.82;;;6.32;;
19225;SDS011;9747;48.536;12.522;2022-12-18T14:56:15;7.75;;;6.18;;
19225;SDS011;9747;48.536;12.522;2022-12-18T14:58:49;8.95;;;6.80;;
19225;SDS011;9747;48.536;12.522;2022-12-18T15:01:20;7.93;;;6.60;;
19225;SDS011;9747;48.536;12.522;2022-12-18T15:03:51;13.93;;;7.47;;
19225;SDS011;9747;48.536;12.522;2022-12-18T15:06:32;9.57;;;6.82;;
19225;SDS011;9747;48.536;12.522;2022-12-18T15:09:02;12.18;;;7.63;;
19225;SDS011;9747;48.536;12.522;2022-12-18T15:11:32;10.52;;;5.85;;
19225;SDS011;9747;48.536;12.522;2022-12-18T15:14:22;6.47;;;5.72;;
19225;SDS011;9747;48.536;12.522;2022-12-18T15:17:02;7.63;;;5.63;;
19225;SDS011;9747;48.536;12.522;2022-12-18T15:19:33;8.77;;;5.57;;
19225;SDS011;9747;48.536;12.522;2022-12-18T15:22:13;10.88;;;5.93;;
19225;SDS011;9747;48.536;12.522;2022-12-18T15:24:49;6.15;;;5.03;;